createdAt,value
2017-05-08T00:01:14.309Z,14.60
2017-05-08T00:03:43.276Z,12.85
2017-05-08T00:06:11.584Z,12.45
2017-05-08T00:08:39.825Z,12.42
2017-05-08T00:11:08.230Z,11.86
2017-05-08T00:13:37.259Z,11.48
2017-05-08T00:16:05.480Z,10.60
2017-05-08T00:18:33.710Z,10.78
2017-05-08T00:21:02.188Z,11.28
2017-05-08T00:23:30.420Z,13.88
2017-05-08T00:25:59.387Z,12.95
2017-05-08T00:28:27.638Z,13.25
2017-05-08T00:30:55.987Z,13.25
2017-05-08T00:33:24.226Z,13.38
2017-05-08T00:35:52.565Z,12.44
2017-05-08T00:38:20.890Z,14.82
2017-05-08T00:40:49.899Z,11.55
2017-05-08T00:43:18.161Z,12.10
2017-05-08T00:45:47.152Z,10.40
2017-05-08T00:48:16.148Z,12.53
2017-05-08T00:50:45.187Z,10.48
2017-05-08T00:53:13.473Z,11.63
2017-05-08T00:55:41.789Z,11.53
2017-05-08T00:58:10.876Z,12.78
2017-05-08T01:00:39.851Z,10.30
2017-05-08T01:03:08.160Z,10.86
2017-05-08T01:05:36.421Z,11.67
2017-05-08T01:08:05.384Z,10.73
2017-05-08T01:10:33.684Z,10.64
2017-05-08T01:13:02.672Z,11.48
2017-05-08T01:15:30.927Z,11.90
2017-05-08T01:17:59.237Z,11.86
2017-05-08T01:20:28.232Z,9.65
2017-05-08T01:22:57.197Z,9.77
2017-05-08T01:25:25.507Z,10.20
2017-05-08T01:27:53.763Z,10.30
2017-05-08T01:30:22.765Z,11.55
2017-05-08T01:32:51.743Z,12.58
2017-05-08T01:35:19.984Z,10.17
2017-05-08T01:37:48.213Z,11.63
2017-05-08T01:40:16.448Z,9.65
2017-05-08T01:42:44.702Z,10.93
2017-05-08T01:45:12.929Z,9.38
2017-05-08T01:47:41.944Z,11.57
2017-05-08T01:50:10.195Z,11.78
2017-05-08T01:52:39.211Z,10.08
2017-05-08T01:55:07.469Z,10.87
2017-05-08T01:57:36.480Z,13.08
2017-05-08T02:00:04.712Z,14.67
2017-05-08T02:02:32.944Z,12.58
2017-05-08T02:05:01.289Z,12.97
2017-05-08T02:07:30.264Z,13.45
2017-05-08T02:09:59.233Z,12.75
2017-05-08T02:12:27.492Z,14.58
2017-05-08T02:14:55.715Z,16.28
2017-05-08T02:17:24.705Z,14.76
2017-05-08T02:19:53.708Z,16.23
2017-05-08T02:22:21.983Z,17.97
2017-05-08T02:24:50.260Z,11.63
2017-05-08T02:27:18.644Z,13.67
2017-05-08T02:29:46.911Z,13.00
2017-05-08T02:32:15.141Z,16.64
2017-05-08T02:34:43.464Z,11.63
2017-05-08T02:37:11.750Z,16.68
2017-05-08T02:39:39.967Z,13.00
2017-05-08T02:42:08.284Z,13.78
2017-05-08T02:44:37.249Z,11.63
2017-05-08T02:47:05.476Z,14.96
2017-05-08T02:49:33.734Z,12.83
2017-05-08T02:52:01.969Z,12.15
2017-05-08T02:54:30.280Z,12.22
2017-05-08T02:56:58.522Z,10.62
2017-05-08T02:59:26.752Z,14.83
2017-05-08T03:01:54.996Z,14.23
2017-05-08T03:04:24.100Z,11.77
2017-05-08T03:06:52.337Z,15.43
2017-05-08T03:09:20.560Z,12.52
2017-05-08T03:11:48.815Z,14.13
2017-05-08T03:14:17.782Z,13.27
2017-05-08T03:16:46.091Z,13.75
2017-05-08T03:19:14.337Z,13.62
2017-05-08T03:21:42.678Z,12.10
2017-05-08T03:24:10.913Z,16.52
2017-05-08T03:26:39.904Z,11.58
2017-05-08T03:29:08.861Z,11.07
2017-05-08T03:31:37.176Z,11.35
2017-05-08T03:34:05.423Z,11.00
2017-05-08T03:36:33.742Z,11.45
2017-05-08T03:39:01.973Z,10.86
2017-05-08T03:41:30.270Z,10.07
2017-05-08T03:43:59.240Z,8.22
2017-05-08T03:46:27.475Z,10.12
2017-05-08T03:48:55.829Z,10.90
2017-05-08T03:51:24.089Z,9.22
2017-05-08T03:53:52.319Z,10.33
2017-05-08T03:56:20.578Z,11.37
2017-05-08T03:58:48.809Z,10.08
2017-05-08T04:01:17.782Z,9.07
2017-05-08T04:03:46.041Z,12.33
2017-05-08T04:06:14.398Z,10.35
2017-05-08T04:08:42.633Z,11.55
2017-05-08T04:11:11.023Z,14.00
2017-05-08T04:13:39.251Z,12.77
2017-05-08T04:16:07.497Z,11.33
2017-05-08T04:18:35.780Z,12.40
2017-05-08T04:21:04.118Z,14.67
2017-05-08T04:23:32.355Z,12.12
2017-05-08T04:26:00.637Z,11.27
2017-05-08T04:28:28.863Z,14.22
2017-05-08T04:30:57.092Z,13.17
2017-05-08T04:33:25.355Z,11.68
2017-05-08T04:35:53.660Z,14.20
2017-05-08T04:38:22.665Z,12.10
2017-05-08T04:40:50.912Z,12.33
2017-05-08T04:43:19.915Z,12.10
2017-05-08T04:45:48.959Z,11.63
2017-05-08T04:48:17.305Z,11.88
2017-05-08T04:50:45.536Z,10.78
2017-05-08T04:53:13.772Z,13.98
2017-05-08T04:55:42.122Z,11.10
2017-05-08T04:58:11.250Z,11.72
2017-05-08T05:00:39.572Z,9.98
2017-05-08T05:03:08.583Z,13.00
2017-05-08T05:05:36.854Z,17.33
2017-05-08T05:08:05.859Z,12.78
2017-05-08T05:10:34.134Z,11.78
2017-05-08T05:13:02.393Z,11.90
2017-05-08T05:15:30.676Z,11.87
2017-05-08T05:17:59.177Z,12.05
2017-05-08T05:20:27.449Z,8.50
2017-05-08T05:22:55.752Z,9.40
2017-05-08T05:25:24.025Z,11.36
2017-05-08T05:27:52.253Z,11.45
2017-05-08T05:30:21.216Z,11.63
2017-05-08T05:32:49.476Z,15.15
2017-05-08T05:35:17.724Z,10.88
2017-05-08T05:37:46.052Z,10.85
2017-05-08T05:40:14.300Z,10.05
2017-05-08T05:42:42.565Z,12.92
2017-05-08T05:45:10.798Z,12.43
2017-05-08T05:47:40.001Z,11.00
2017-05-08T05:50:08.272Z,11.03
2017-05-08T05:52:36.552Z,10.58
2017-05-08T05:55:04.859Z,12.17
2017-05-08T05:57:33.088Z,10.42
2017-05-08T06:00:02.060Z,9.30
2017-05-08T06:02:30.320Z,11.50
2017-05-08T06:04:58.575Z,12.52
2017-05-08T06:07:26.803Z,12.68
2017-05-08T06:09:55.076Z,15.32
2017-05-08T06:12:23.427Z,15.92
2017-05-08T06:14:51.679Z,17.10
2017-05-08T06:17:20.160Z,19.40
2017-05-08T06:19:48.559Z,22.13
2017-05-08T06:22:16.794Z,20.08
2017-05-08T06:24:45.816Z,17.63
2017-05-08T06:27:14.084Z,20.32
2017-05-08T06:29:41.651Z,18.25
2017-05-08T06:32:09.913Z,21.17
2017-05-08T06:34:38.217Z,20.23
2017-05-08T06:37:06.447Z,16.38
2017-05-08T06:39:35.457Z,15.25
2017-05-08T06:42:04.453Z,16.45
2017-05-08T06:44:32.701Z,14.68
2017-05-08T06:47:00.996Z,15.15
2017-05-08T06:49:29.284Z,16.48
2017-05-08T06:51:57.560Z,15.85
2017-05-08T06:54:25.866Z,18.70
2017-05-08T06:56:54.243Z,16.75
2017-05-08T06:59:22.511Z,13.43
2017-05-08T07:01:50.769Z,14.50
2017-05-08T07:04:19.136Z,13.20
2017-05-08T07:06:47.409Z,16.68
2017-05-08T07:09:15.730Z,12.63
2017-05-08T07:11:44.088Z,13.22
2017-05-08T07:14:13.087Z,12.70
2017-05-08T07:16:41.363Z,13.03
2017-05-08T07:19:09.617Z,12.38
2017-05-08T07:21:37.954Z,12.25
2017-05-08T07:24:06.248Z,10.33
2017-05-08T07:26:34.607Z,11.87
2017-05-08T07:29:02.948Z,11.70
2017-05-08T07:31:31.216Z,13.10
2017-05-08T07:33:59.536Z,13.18
2017-05-08T07:36:27.868Z,11.57
2017-05-08T07:38:56.860Z,11.63
2017-05-08T07:41:25.847Z,11.48
2017-05-08T07:43:54.853Z,10.65
2017-05-08T07:46:23.119Z,11.20
2017-05-08T07:48:52.155Z,10.00
2017-05-08T07:51:20.389Z,8.52
2017-05-08T07:53:48.711Z,6.93
2017-05-08T07:56:16.933Z,6.45
2017-05-08T07:58:45.925Z,9.78
2017-05-08T08:01:14.950Z,6.23
2017-05-08T08:03:43.164Z,6.98
2017-05-08T08:06:11.464Z,4.68
2017-05-08T08:08:40.476Z,4.25
2017-05-08T08:11:08.706Z,5.80
2017-05-08T08:13:36.924Z,5.73
2017-05-08T08:16:05.212Z,5.23
2017-05-08T08:18:33.511Z,7.68
2017-05-08T08:21:01.733Z,5.47
2017-05-08T08:23:30.717Z,5.85
2017-05-08T08:25:59.716Z,5.00
2017-05-08T08:28:27.968Z,4.37
2017-05-08T08:30:56.286Z,4.64
2017-05-08T08:33:25.003Z,4.05
2017-05-08T08:35:53.336Z,8.07
2017-05-08T08:38:22.340Z,3.48
2017-05-08T08:40:50.654Z,3.30
2017-05-08T08:43:18.928Z,4.40
2017-05-08T08:45:47.264Z,3.10
2017-05-08T08:48:15.557Z,3.23
2017-05-08T08:50:43.778Z,7.73
2017-05-08T08:53:12.115Z,4.90
2017-05-08T08:55:40.344Z,3.40
2017-05-08T08:58:09.309Z,3.58
2017-05-08T09:00:37.593Z,3.53
2017-05-08T09:03:05.834Z,7.15
2017-05-08T09:05:34.119Z,4.45
2017-05-08T09:08:02.367Z,3.85
2017-05-08T09:10:30.661Z,4.42
2017-05-08T09:12:58.917Z,3.42
2017-05-08T09:15:27.330Z,2.93
2017-05-08T09:17:55.556Z,3.82
2017-05-08T09:20:23.828Z,5.08
2017-05-08T09:22:52.800Z,2.80
2017-05-08T09:25:21.782Z,3.45
2017-05-08T09:27:50.136Z,3.00
2017-05-08T09:30:18.512Z,2.90
2017-05-08T09:32:46.851Z,3.00
2017-05-08T09:35:15.117Z,5.58
2017-05-08T09:37:44.102Z,3.20
2017-05-08T09:40:13.086Z,3.80
2017-05-08T09:42:41.425Z,3.80
2017-05-08T09:45:09.768Z,4.30
2017-05-08T09:47:38.011Z,3.27
2017-05-08T09:50:06.257Z,2.30
2017-05-08T09:52:34.527Z,4.77
2017-05-08T09:55:02.801Z,2.60
2017-05-08T09:57:31.030Z,2.30
2017-05-08T10:00:00.171Z,6.30
2017-05-08T10:02:28.616Z,2.40
2017-05-08T10:04:56.890Z,1.92
2017-05-08T10:07:25.125Z,2.85
2017-05-08T10:09:53.376Z,3.28
2017-05-08T10:12:21.624Z,1.87
2017-05-08T10:14:49.926Z,2.00
2017-05-08T10:17:18.200Z,4.30
2017-05-08T10:19:46.541Z,2.40
2017-05-08T10:22:14.909Z,2.33
2017-05-08T10:24:44.012Z,3.35
2017-05-08T10:27:12.257Z,5.53
2017-05-08T10:29:40.490Z,2.80
2017-05-08T10:32:08.724Z,3.83
2017-05-08T10:34:37.705Z,3.78
2017-05-08T10:37:06.034Z,2.32
2017-05-08T10:39:34.264Z,2.23
2017-05-08T10:42:02.701Z,2.97
2017-05-08T10:44:31.073Z,2.65
2017-05-08T10:46:59.302Z,2.30
2017-05-08T10:49:28.321Z,2.47
2017-05-08T10:51:56.569Z,4.50
2017-05-08T10:54:25.714Z,2.53
2017-05-08T10:56:53.969Z,2.50
2017-05-08T10:59:22.244Z,2.00
2017-05-08T11:01:50.537Z,2.20
2017-05-08T11:04:18.787Z,2.70
2017-05-08T11:06:47.076Z,2.10
2017-05-08T11:09:15.466Z,3.80
2017-05-08T11:11:45.573Z,5.37
2017-05-08T11:14:13.867Z,2.07
2017-05-08T11:16:42.129Z,2.40
2017-05-08T11:19:10.436Z,2.58
2017-05-08T11:21:38.672Z,2.60
2017-05-08T11:24:06.927Z,2.20
2017-05-08T11:26:35.173Z,4.58
2017-05-08T11:29:03.593Z,2.87
2017-05-08T11:31:31.891Z,2.33
2017-05-08T11:34:00.108Z,3.98
2017-05-08T11:36:29.143Z,4.50
2017-05-08T11:38:58.299Z,2.95
2017-05-08T11:41:26.594Z,2.32
2017-05-08T11:43:54.859Z,2.84
2017-05-08T11:46:23.820Z,3.50
2017-05-08T11:48:52.055Z,2.93
2017-05-08T11:51:20.344Z,4.30
2017-05-08T11:53:48.604Z,3.90
2017-05-08T11:56:16.866Z,2.90
2017-05-08T11:58:45.086Z,2.38
2017-05-08T12:01:13.323Z,4.07
2017-05-08T12:03:41.551Z,3.07
2017-05-08T12:06:09.854Z,2.90
2017-05-08T12:08:38.173Z,4.12
2017-05-08T12:11:06.411Z,3.62
2017-05-08T12:13:34.823Z,3.00
2017-05-08T12:16:03.169Z,2.50
2017-05-08T12:18:31.502Z,3.82
2017-05-08T12:20:59.916Z,2.50
2017-05-08T12:23:28.196Z,4.38
2017-05-08T12:25:56.428Z,4.92
2017-05-08T12:28:24.748Z,4.38
2017-05-08T12:30:53.004Z,2.52
2017-05-08T12:33:21.995Z,4.93
2017-05-08T12:35:50.333Z,4.22
2017-05-08T12:38:18.564Z,2.93
2017-05-08T12:40:46.860Z,3.22
2017-05-08T12:43:15.119Z,3.10
2017-05-08T12:45:43.412Z,5.07
2017-05-08T12:48:11.664Z,2.57
2017-05-08T12:50:39.940Z,4.00
2017-05-08T12:53:08.229Z,3.23
2017-05-08T12:55:36.474Z,2.52
2017-05-08T12:58:05.519Z,2.62
2017-05-08T13:00:33.905Z,4.13
2017-05-08T13:03:02.173Z,2.77
2017-05-08T13:05:30.402Z,3.17
2017-05-08T13:07:59.492Z,2.78
2017-05-08T13:10:28.508Z,3.23
2017-05-08T13:12:56.763Z,3.05
2017-05-08T13:15:25.009Z,3.55
2017-05-08T13:17:53.227Z,3.63
2017-05-08T13:20:21.509Z,3.02
2017-05-08T13:22:49.763Z,4.98
2017-05-08T13:25:18.762Z,4.22
2017-05-08T13:27:47.036Z,3.06
2017-05-08T13:30:15.354Z,3.07
2017-05-08T13:32:43.732Z,2.70
2017-05-08T13:35:12.070Z,3.80
2017-05-08T13:37:40.303Z,2.78
2017-05-08T13:40:08.538Z,3.67
2017-05-08T13:42:36.820Z,3.72
2017-05-08T13:45:05.068Z,3.90
2017-05-08T13:47:33.301Z,3.60
2017-05-08T13:50:01.611Z,4.77
2017-05-08T13:52:30.752Z,4.80
2017-05-08T13:54:59.072Z,3.58
2017-05-08T13:57:27.352Z,2.42
2017-05-08T13:59:56.323Z,4.08
2017-05-08T14:02:24.634Z,5.03
2017-05-08T14:04:53.663Z,4.02
2017-05-08T14:07:21.931Z,2.63
2017-05-08T14:09:50.172Z,4.90
2017-05-08T14:12:18.476Z,5.27
2017-05-08T14:14:46.789Z,2.93
2017-05-08T14:17:16.193Z,4.70
2017-05-08T14:19:44.476Z,4.02
2017-05-08T14:22:12.714Z,2.60
2017-05-08T14:24:41.095Z,3.18
2017-05-08T14:27:09.441Z,4.18
2017-05-08T14:29:37.668Z,2.82
2017-05-08T14:32:05.998Z,3.10
2017-05-08T14:34:34.250Z,1.80
2017-05-08T14:37:02.504Z,2.50
2017-05-08T14:39:30.814Z,2.23
2017-05-08T14:41:59.081Z,6.93
2017-05-08T14:44:28.062Z,6.07
2017-05-08T14:46:57.032Z,2.30
2017-05-08T14:49:25.384Z,2.95
2017-05-08T14:51:53.630Z,2.56
2017-05-08T14:54:21.872Z,3.23
2017-05-08T14:56:50.851Z,3.85
2017-05-08T14:59:19.217Z,3.20
2017-05-08T15:01:47.538Z,3.27
2017-05-08T15:04:16.532Z,7.15
2017-05-08T15:06:44.828Z,5.33
2017-05-08T15:09:13.064Z,3.92
2017-05-08T15:11:42.121Z,2.78
2017-05-08T15:14:10.365Z,3.75
2017-05-08T15:16:38.595Z,4.53
2017-05-08T15:19:07.000Z,2.64
2017-05-08T15:21:35.997Z,3.65
2017-05-08T15:24:04.371Z,6.18
2017-05-08T15:26:32.652Z,4.17
2017-05-08T15:29:01.067Z,2.70
2017-05-08T15:31:29.444Z,3.70
2017-05-08T15:33:57.688Z,3.90
2017-05-08T15:36:25.952Z,3.50
2017-05-08T15:38:54.231Z,2.54
2017-05-08T15:41:22.508Z,3.00
2017-05-08T15:43:50.801Z,3.58
2017-05-08T15:46:19.070Z,2.07
2017-05-08T15:48:47.337Z,2.50
2017-05-08T15:51:15.618Z,2.87
2017-05-08T15:53:43.848Z,1.97
2017-05-08T15:56:12.097Z,2.68
2017-05-08T15:58:40.343Z,2.32
2017-05-08T16:01:08.585Z,2.40
2017-05-08T16:03:36.891Z,4.67
2017-05-08T16:06:05.154Z,2.80
2017-05-08T16:08:34.132Z,2.90
2017-05-08T16:11:03.259Z,2.26
2017-05-08T16:13:31.529Z,2.72
2017-05-08T16:15:59.809Z,3.32
2017-05-08T16:18:28.147Z,3.45
2017-05-08T16:20:57.132Z,3.50
2017-05-08T16:23:25.866Z,2.68
2017-05-08T16:25:54.220Z,2.50
2017-05-08T16:28:23.428Z,2.67
2017-05-08T16:30:51.672Z,3.06
2017-05-08T16:33:20.003Z,2.43
2017-05-08T16:35:48.240Z,2.60
2017-05-08T16:38:17.269Z,3.18
2017-05-08T16:40:45.509Z,2.26
2017-05-08T16:43:14.499Z,3.30
2017-05-08T16:45:43.512Z,2.50
2017-05-08T16:48:11.767Z,2.53
2017-05-08T16:50:40.775Z,2.85
2017-05-08T16:53:09.014Z,2.75
2017-05-08T16:55:37.259Z,2.82
2017-05-08T16:58:05.516Z,3.40
2017-05-08T17:00:33.744Z,1.68
2017-05-08T17:03:01.994Z,3.45
2017-05-08T17:05:30.565Z,3.07
2017-05-08T17:07:58.803Z,3.86
2017-05-08T17:10:27.156Z,1.60
2017-05-08T17:12:56.163Z,3.20
2017-05-08T17:15:25.200Z,3.08
2017-05-08T17:17:53.563Z,2.58
2017-05-08T17:20:21.788Z,2.37
2017-05-08T17:22:50.100Z,1.67
2017-05-08T17:25:18.337Z,3.36
2017-05-08T17:27:46.678Z,3.30
2017-05-08T17:30:15.025Z,2.80
2017-05-08T17:32:43.255Z,2.00
2017-05-08T17:35:11.725Z,3.82
2017-05-08T17:37:40.180Z,3.95
2017-05-08T17:40:08.408Z,1.80
2017-05-08T17:42:36.713Z,4.03
2017-05-08T17:45:04.982Z,3.83
2017-05-08T17:47:33.260Z,2.65
2017-05-08T17:50:01.566Z,2.68
2017-05-08T17:52:29.836Z,2.50
2017-05-08T17:54:58.091Z,1.92
2017-05-08T17:57:26.321Z,6.58
2017-05-08T17:59:54.581Z,1.65
2017-05-08T18:02:22.860Z,3.22
2017-05-08T18:04:51.131Z,2.80
2017-05-08T18:07:19.453Z,2.67
2017-05-08T18:09:47.684Z,2.64
2017-05-08T18:12:16.041Z,2.82
2017-05-08T18:14:44.300Z,1.87
2017-05-08T18:17:12.576Z,2.60
2017-05-08T18:19:40.832Z,4.87
2017-05-08T18:22:09.057Z,2.67
2017-05-08T18:24:37.485Z,2.90
2017-05-08T18:27:05.769Z,2.15
2017-05-08T18:29:34.016Z,3.37
2017-05-08T18:32:02.313Z,3.93
2017-05-08T18:34:30.597Z,1.60
2017-05-08T18:36:58.839Z,1.80
2017-05-08T18:39:27.819Z,2.38
2017-05-08T18:41:56.240Z,4.02
2017-05-08T18:44:24.607Z,3.07
2017-05-08T18:46:53.585Z,3.58
2017-05-08T18:49:22.581Z,1.50
2017-05-08T18:51:51.577Z,2.73
2017-05-08T18:54:20.552Z,3.28
2017-05-08T18:56:48.894Z,2.42
2017-05-08T18:59:17.333Z,2.18
2017-05-08T19:01:45.587Z,4.03
2017-05-08T19:04:14.620Z,3.38
2017-05-08T19:06:42.917Z,3.77
2017-05-08T19:09:11.143Z,2.32
2017-05-08T19:11:39.392Z,2.02
2017-05-08T19:14:07.640Z,2.90
2017-05-08T19:16:35.889Z,4.73
2017-05-08T19:19:04.150Z,2.93
2017-05-08T19:21:33.131Z,2.80
2017-05-08T19:24:02.092Z,2.78
2017-05-08T19:26:30.348Z,2.54
2017-05-08T19:28:58.597Z,3.27
2017-05-08T19:31:27.018Z,1.70
2017-05-08T19:33:55.347Z,1.65
2017-05-08T19:36:23.575Z,2.20
2017-05-08T19:38:51.862Z,4.18
2017-05-08T19:41:20.883Z,2.68
2017-05-08T19:43:49.868Z,2.90
2017-05-08T19:46:18.838Z,3.62
2017-05-08T19:48:47.079Z,2.30
2017-05-08T19:51:15.428Z,2.40
2017-05-08T19:53:43.708Z,3.38
2017-05-08T19:56:11.960Z,3.55
2017-05-08T19:58:40.189Z,4.00
2017-05-08T20:01:08.428Z,3.50
2017-05-08T20:03:36.683Z,2.38
2017-05-08T20:06:05.676Z,3.50
2017-05-08T20:08:33.944Z,2.63
2017-05-08T20:11:02.910Z,4.57
2017-05-08T20:13:31.174Z,3.05
2017-05-08T20:15:59.413Z,4.07
2017-05-08T20:18:27.668Z,2.98
2017-05-08T20:20:55.911Z,5.37
2017-05-08T20:23:24.177Z,2.30
2017-05-08T20:25:52.418Z,3.85
2017-05-08T20:28:20.651Z,2.63
2017-05-08T20:30:49.621Z,3.02
2017-05-08T20:33:17.886Z,3.30
2017-05-08T20:35:46.249Z,3.02
2017-05-08T20:38:14.492Z,3.10
2017-05-08T20:40:42.716Z,4.68
2017-05-08T20:43:10.959Z,3.77
2017-05-08T20:45:39.205Z,3.10
2017-05-08T20:48:08.215Z,2.64
2017-05-08T20:50:36.496Z,2.60
2017-05-08T20:53:04.760Z,3.58
2017-05-08T20:55:33.037Z,3.10
2017-05-08T20:58:01.294Z,2.73
2017-05-08T21:00:29.533Z,3.50
2017-05-08T21:02:57.892Z,2.87
2017-05-08T21:05:26.130Z,3.47
2017-05-08T21:07:55.146Z,4.00
2017-05-08T21:10:23.438Z,2.65
2017-05-08T21:12:51.713Z,4.20
2017-05-08T21:15:19.971Z,4.58
2017-05-08T21:17:48.205Z,2.53
2017-05-08T21:20:16.449Z,2.88
2017-05-08T21:22:44.738Z,2.55
2017-05-08T21:25:12.986Z,4.05
2017-05-08T21:27:41.223Z,3.40
2017-05-08T21:30:10.239Z,2.67
2017-05-08T21:32:38.497Z,3.60
2017-05-08T21:35:06.876Z,4.57
2017-05-08T21:37:35.096Z,2.65
2017-05-08T21:40:03.343Z,4.37
2017-05-08T21:42:31.575Z,3.90
2017-05-08T21:44:59.816Z,3.32
2017-05-08T21:47:28.064Z,3.03
2017-05-08T21:49:56.316Z,4.10
2017-05-08T21:52:24.540Z,2.40
2017-05-08T21:54:52.785Z,3.82
2017-05-08T21:57:21.265Z,3.82
2017-05-08T21:59:49.493Z,3.35
2017-05-08T22:02:17.740Z,3.30
2017-05-08T22:04:46.006Z,6.47
2017-05-08T22:07:14.237Z,5.48
2017-05-08T22:09:42.496Z,4.35
2017-05-08T22:12:10.781Z,6.32
2017-05-08T22:14:39.027Z,4.92
2017-05-08T22:17:07.274Z,4.73
2017-05-08T22:19:35.486Z,7.85
2017-05-08T22:22:04.468Z,4.33
2017-05-08T22:24:33.455Z,4.02
2017-05-08T22:27:01.766Z,3.87
2017-05-08T22:29:30.014Z,3.13
2017-05-08T22:31:58.992Z,4.02
2017-05-08T22:34:27.255Z,3.90
2017-05-08T22:36:55.577Z,4.72
2017-05-08T22:39:23.839Z,4.92
2017-05-08T22:41:52.119Z,3.97
2017-05-08T22:44:20.437Z,5.40
2017-05-08T22:46:48.664Z,4.95
2017-05-08T22:49:17.651Z,5.42
2017-05-08T22:51:46.657Z,5.78
2017-05-08T22:54:15.632Z,4.42
2017-05-08T22:56:44.653Z,5.98
2017-05-08T22:59:12.893Z,3.65
2017-05-08T23:01:41.873Z,4.77
2017-05-08T23:04:10.110Z,3.78
2017-05-08T23:06:38.336Z,4.20
2017-05-08T23:09:06.558Z,3.65
2017-05-08T23:11:34.792Z,3.55
2017-05-08T23:14:03.024Z,4.00
2017-05-08T23:16:31.281Z,4.67
2017-05-08T23:18:59.544Z,3.77
2017-05-08T23:21:27.773Z,3.82
2017-05-08T23:23:56.085Z,3.37
2017-05-08T23:26:24.332Z,5.62
2017-05-08T23:28:52.578Z,6.45
2017-05-08T23:31:20.809Z,4.87
2017-05-08T23:33:49.057Z,3.92
2017-05-08T23:36:18.061Z,3.10
2017-05-08T23:38:47.109Z,5.03
2017-05-08T23:41:15.435Z,5.33
2017-05-08T23:43:44.397Z,3.74
2017-05-08T23:46:12.660Z,3.37
2017-05-08T23:48:40.897Z,3.48
2017-05-08T23:51:09.124Z,4.02
2017-05-08T23:53:37.384Z,3.48
2017-05-08T23:56:05.651Z,4.63
2017-05-08T23:58:33.896Z,3.03
